CCA4580 ZHCC-ZSPD
Flight info
| Callsign | CCA4580 |
|---|---|
| Flight time | N/A |
| Altitude | 39100 |
| Route | RUM9W RUMGU W594 EPGOS W128 FYG B208 HFE R343 SASAN SAS81A |
| Aircraft | A346/H-SDE2E3FGHIJ3J4J5M1RWXY/LB1D1 |
Departure
| Time | 2026-05-01 13:58 |
|---|---|
| Airport | Zhengzhou Xinzheng International Airport (ZHCC) |
Arrival
| Time | N/A |
|---|---|
| Airport | Shanghai Pudong International Airport (ZSPD) |
| Time | Latitude | Longitude | Altitude | Speed | Heading |
|---|---|---|---|---|---|
| 2026-05-01 13:36 | 34.53905 | 113.86838 | 514 ft | 0 kts | 21° |
| 2026-05-01 13:44 | 34.53905 | 113.86837 | 514 ft | 1 kts | 21° |
| 2026-05-01 13:45 | 34.53891 | 113.86831 | 514 ft | 2 kts | 21° |
| 2026-05-01 13:45 | 34.53876 | 113.86824 | 514 ft | 2 kts | 21° |
| 2026-05-01 13:45 | 34.53867 | 113.86820 | 514 ft | 2 kts | 21° |
| 2026-05-01 13:45 | 34.53852 | 113.86814 | 514 ft | 2 kts | 6° |
| 2026-05-01 13:46 | 34.53837 | 113.86814 | 514 ft | 2 kts | 350° |
| 2026-05-01 13:46 | 34.53822 | 113.86820 | 514 ft | 2 kts | 336° |
| 2026-05-01 13:46 | 34.53808 | 113.86829 | 514 ft | 2 kts | 322° |
| 2026-05-01 13:46 | 34.53797 | 113.86842 | 514 ft | 2 kts | 307° |
| 2026-05-01 13:47 | 34.53789 | 113.86858 | 514 ft | 1 kts | 293° |
| 2026-05-01 13:47 | 34.53786 | 113.86865 | 514 ft | 0 kts | 291° |
| 2026-05-01 13:50 | 34.53788 | 113.86860 | 514 ft | 2 kts | 291° |
| 2026-05-01 13:50 | 34.53798 | 113.86829 | 514 ft | 5 kts | 291° |
| 2026-05-01 13:51 | 34.53817 | 113.86770 | 514 ft | 9 kts | 292° |
| 2026-05-01 13:51 | 34.53846 | 113.86686 | 514 ft | 12 kts | 292° |
| 2026-05-01 13:51 | 34.53881 | 113.86581 | 514 ft | 14 kts | 292° |
| 2026-05-01 13:51 | 34.53920 | 113.86468 | 514 ft | 11 kts | 293° |
| 2026-05-01 13:52 | 34.53950 | 113.86382 | 514 ft | 9 kts | 292° |
| 2026-05-01 13:52 | 34.53930 | 113.86307 | 514 ft | 11 kts | 218° |
| 2026-05-01 13:52 | 34.53848 | 113.86259 | 514 ft | 14 kts | 201° |
| 2026-05-01 13:52 | 34.53749 | 113.86211 | 514 ft | 16 kts | 201° |
| 2026-05-01 13:53 | 34.53635 | 113.86155 | 514 ft | 17 kts | 202° |
| 2026-05-01 13:53 | 34.53482 | 113.86070 | 514 ft | 7 kts | 236° |
| 2026-05-01 13:53 | 34.53484 | 113.85988 | 514 ft | 11 kts | 288° |
| 2026-05-01 13:54 | 34.53516 | 113.85886 | 514 ft | 13 kts | 292° |
| 2026-05-01 13:54 | 34.53556 | 113.85766 | 514 ft | 15 kts | 292° |
| 2026-05-01 13:54 | 34.53603 | 113.85631 | 514 ft | 17 kts | 292° |
| 2026-05-01 13:54 | 34.53653 | 113.85486 | 514 ft | 18 kts | 292° |
| 2026-05-01 13:55 | 34.53706 | 113.85329 | 514 ft | 19 kts | 292° |
| 2026-05-01 13:55 | 34.53762 | 113.85164 | 514 ft | 21 kts | 292° |
| 2026-05-01 13:55 | 34.53823 | 113.84985 | 514 ft | 22 kts | 292° |
| 2026-05-01 13:55 | 34.53885 | 113.84802 | 514 ft | 23 kts | 292° |
| 2026-05-01 13:56 | 34.53939 | 113.84642 | 514 ft | 18 kts | 292° |
| 2026-05-01 13:56 | 34.53990 | 113.84493 | 514 ft | 19 kts | 292° |
| 2026-05-01 13:56 | 34.54042 | 113.84338 | 514 ft | 18 kts | 292° |
| 2026-05-01 13:56 | 34.54084 | 113.84215 | 514 ft | 12 kts | 292° |
| 2026-05-01 13:57 | 34.54079 | 113.84147 | 514 ft | 8 kts | 216° |
| 2026-05-01 13:57 | 34.54038 | 113.84120 | 514 ft | 10 kts | 204° |
| 2026-05-01 13:57 | 34.53950 | 113.84103 | 514 ft | 8 kts | 133° |
| 2026-05-01 13:57 | 34.53862 | 113.84324 | 514 ft | 65 kts | 112° |
| 2026-05-01 13:58 | 34.53579 | 113.85156 | 514 ft | 139 kts | 112° |
| 2026-05-01 13:58 | 34.53132 | 113.86462 | 634 ft | 182 kts | 112° |
| 2026-05-01 13:58 | 34.52622 | 113.87936 | 1237 ft | 190 kts | 113° |
| 2026-05-01 13:58 | 34.52070 | 113.89507 | 1805 ft | 208 kts | 113° |
| 2026-05-01 13:59 | 34.51478 | 113.91196 | 2372 ft | 225 kts | 113° |
| 2026-05-01 13:59 | 34.50829 | 113.93059 | 2920 ft | 248 kts | 112° |
| 2026-05-01 13:59 | 34.50131 | 113.95074 | 3597 ft | 265 kts | 112° |
| 2026-05-01 13:59 | 34.49406 | 113.97160 | 4514 ft | 269 kts | 112° |
| 2026-05-01 14:00 | 34.48666 | 113.99290 | 5347 ft | 272 kts | 112° |
| 2026-05-01 14:00 | 34.47919 | 114.01444 | 6133 ft | 276 kts | 112° |
| 2026-05-01 14:00 | 34.47169 | 114.03604 | 6936 ft | 280 kts | 112° |
| 2026-05-01 14:00 | 34.46289 | 114.05777 | 7753 ft | 283 kts | 121° |
| 2026-05-01 14:01 | 34.45114 | 114.07730 | 8551 ft | 287 kts | 130° |
| 2026-05-01 14:01 | 34.43753 | 114.09566 | 9353 ft | 291 kts | 132° |
| 2026-05-01 14:01 | 34.42356 | 114.11380 | 10140 ft | 294 kts | 133° |
| 2026-05-01 14:01 | 34.40931 | 114.13222 | 10731 ft | 306 kts | 133° |
| 2026-05-01 14:02 | 34.39431 | 114.15163 | 11112 ft | 324 kts | 133° |
| 2026-05-01 14:02 | 34.37859 | 114.17202 | 11601 ft | 337 kts | 133° |
| 2026-05-01 14:02 | 34.36220 | 114.19330 | 12179 ft | 350 kts | 132° |
| 2026-05-01 14:02 | 34.34519 | 114.21538 | 12604 ft | 369 kts | 132° |
| 2026-05-01 14:03 | 34.32703 | 114.23894 | 13202 ft | 382 kts | 132° |
| 2026-05-01 14:03 | 34.30868 | 114.26273 | 14032 ft | 387 kts | 132° |
| 2026-05-01 14:03 | 34.29031 | 114.28655 | 14835 ft | 393 kts | 132° |
| 2026-05-01 14:03 | 34.27136 | 114.31111 | 15595 ft | 399 kts | 132° |
| 2026-05-01 14:04 | 34.25210 | 114.33606 | 16338 ft | 405 kts | 132° |
| 2026-05-01 14:04 | 34.23220 | 114.36060 | 17027 ft | 412 kts | 137° |
| 2026-05-01 14:04 | 34.20906 | 114.38194 | 17720 ft | 419 kts | 147° |
| 2026-05-01 14:04 | 34.19187 | 114.39370 | 18189 ft | 423 kts | 154° |
| 2026-05-01 14:05 | 34.15572 | 114.41262 | 19114 ft | 429 kts | 158° |
| 2026-05-01 14:05 | 34.12768 | 114.42630 | 19792 ft | 434 kts | 159° |
| 2026-05-01 14:05 | 34.09928 | 114.44013 | 20458 ft | 440 kts | 159° |
| 2026-05-01 14:05 | 34.07065 | 114.45416 | 21109 ft | 445 kts | 159° |
| 2026-05-01 14:06 | 34.04164 | 114.46845 | 21753 ft | 449 kts | 159° |
| 2026-05-01 14:06 | 34.01255 | 114.48285 | 22383 ft | 454 kts | 159° |
| 2026-05-01 14:06 | 33.98330 | 114.49735 | 23003 ft | 458 kts | 159° |
| 2026-05-01 14:06 | 33.95343 | 114.51217 | 23609 ft | 463 kts | 160° |
| 2026-05-01 14:07 | 33.92314 | 114.52720 | 24215 ft | 467 kts | 160° |
| 2026-05-01 14:07 | 33.89283 | 114.54222 | 24809 ft | 471 kts | 160° |
| 2026-05-01 14:07 | 33.86203 | 114.55748 | 25387 ft | 475 kts | 160° |
| 2026-05-01 14:08 | 33.79989 | 114.58823 | 26526 ft | 482 kts | 161° |
| 2026-05-01 14:08 | 33.76891 | 114.60355 | 27075 ft | 485 kts | 161° |
| 2026-05-01 14:08 | 33.73739 | 114.61912 | 27613 ft | 488 kts | 161° |
| 2026-05-01 14:08 | 33.70576 | 114.63472 | 28157 ft | 491 kts | 161° |
| 2026-05-01 14:09 | 33.67412 | 114.65032 | 28677 ft | 494 kts | 162° |
| 2026-05-01 14:09 | 33.64215 | 114.66590 | 29204 ft | 495 kts | 163° |
| 2026-05-01 14:09 | 33.60990 | 114.68129 | 29940 ft | 492 kts | 163° |
| 2026-05-01 14:09 | 33.57840 | 114.69630 | 30740 ft | 487 kts | 163° |
| 2026-05-01 14:10 | 33.54729 | 114.71310 | 31484 ft | 486 kts | 159° |
| 2026-05-01 14:10 | 33.51744 | 114.73261 | 32183 ft | 486 kts | 155° |
| 2026-05-01 14:10 | 33.48893 | 114.75488 | 32891 ft | 486 kts | 150° |
| 2026-05-01 14:10 | 33.46202 | 114.77965 | 33561 ft | 486 kts | 146° |
| 2026-05-01 14:11 | 33.43698 | 114.80663 | 34179 ft | 487 kts | 141° |
| 2026-05-01 14:11 | 33.39109 | 114.86707 | 35340 ft | 486 kts | 136° |
| 2026-05-01 14:11 | 33.36914 | 114.89777 | 35818 ft | 485 kts | 136° |
| 2026-05-01 14:12 | 33.34732 | 114.92829 | 36265 ft | 484 kts | 136° |
| 2026-05-01 14:12 | 33.32515 | 114.95924 | 36681 ft | 483 kts | 136° |
| 2026-05-01 14:12 | 33.30306 | 114.98995 | 37051 ft | 483 kts | 136° |
| 2026-05-01 14:12 | 33.28126 | 115.02015 | 37387 ft | 483 kts | 136° |
| 2026-05-01 14:13 | 33.25890 | 115.05106 | 37661 ft | 485 kts | 136° |
| 2026-05-01 14:13 | 33.24411 | 115.07149 | 37822 ft | 486 kts | 136° |
| 2026-05-01 14:13 | 33.21434 | 115.11253 | 38132 ft | 489 kts | 136° |
| 2026-05-01 14:13 | 33.19204 | 115.14327 | 38354 ft | 491 kts | 136° |
| 2026-05-01 14:14 | 33.16936 | 115.17452 | 38580 ft | 492 kts | 136° |
| 2026-05-01 14:14 | 33.14684 | 115.20551 | 38826 ft | 493 kts | 136° |
| 2026-05-01 14:14 | 33.12398 | 115.23695 | 39010 ft | 495 kts | 136° |
| 2026-05-01 14:14 | 33.10130 | 115.26812 | 39023 ft | 496 kts | 136° |
| 2026-05-01 14:15 | 33.05574 | 115.33058 | 39031 ft | 495 kts | 135° |
| 2026-05-01 14:15 | 33.01173 | 115.39494 | 39040 ft | 496 kts | 130° |
| 2026-05-01 14:16 | 32.97431 | 115.46423 | 39046 ft | 498 kts | 122° |
| 2026-05-01 14:16 | 32.94386 | 115.53902 | 39050 ft | 499 kts | 115° |
| 2026-05-01 14:17 | 32.91923 | 115.61748 | 39052 ft | 499 kts | 112° |
| 2026-05-01 14:17 | 32.89159 | 115.69355 | 39049 ft | 497 kts | 120° |
| 2026-05-01 14:18 | 32.85657 | 115.76485 | 39048 ft | 494 kts | 127° |
| 2026-05-01 14:18 | 32.82264 | 115.81957 | 39047 ft | 492 kts | 133° |
| 2026-05-01 14:19 | 32.77074 | 115.89285 | 39048 ft | 491 kts | 134° |
| 2026-05-01 14:19 | 32.72657 | 115.95506 | 39047 ft | 492 kts | 134° |
| 2026-05-01 14:20 | 32.66019 | 116.04874 | 39047 ft | 491 kts | 134° |
| 2026-05-01 14:21 | 32.61584 | 116.11125 | 39048 ft | 491 kts | 134° |
| 2026-05-01 14:21 | 32.57174 | 116.17334 | 39047 ft | 491 kts | 134° |
| 2026-05-01 14:22 | 32.50627 | 116.26793 | 39047 ft | 492 kts | 133° |
| 2026-05-01 14:22 | 32.46257 | 116.33162 | 39047 ft | 492 kts | 133° |
| 2026-05-01 14:23 | 32.41908 | 116.39481 | 39048 ft | 492 kts | 133° |
| 2026-05-01 14:23 | 32.37532 | 116.45822 | 39047 ft | 492 kts | 133° |
| 2026-05-01 14:24 | 32.33170 | 116.52128 | 39047 ft | 492 kts | 133° |
| 2026-05-01 14:24 | 32.28806 | 116.58426 | 39048 ft | 492 kts | 133° |
| 2026-05-01 14:25 | 32.24463 | 116.64689 | 39047 ft | 492 kts | 133° |
| 2026-05-01 14:25 | 32.20101 | 116.70966 | 39046 ft | 491 kts | 133° |
| 2026-05-01 14:26 | 32.13479 | 116.80280 | 39047 ft | 491 kts | 134° |
| 2026-05-01 14:27 | 32.09018 | 116.86465 | 39048 ft | 491 kts | 134° |
| 2026-05-01 14:27 | 32.04573 | 116.92628 | 39047 ft | 491 kts | 134° |
| 2026-05-01 14:28 | 31.97916 | 117.01852 | 39046 ft | 490 kts | 134° |
| 2026-05-01 14:28 | 31.93481 | 117.08003 | 39047 ft | 490 kts | 134° |
| 2026-05-01 14:29 | 31.89034 | 117.14171 | 39048 ft | 490 kts | 134° |
| 2026-05-01 14:30 | 31.80631 | 117.27003 | 39046 ft | 495 kts | 122° |
| 2026-05-01 14:31 | 31.77032 | 117.38522 | 39047 ft | 504 kts | 103° |
| 2026-05-01 14:31 | 31.76216 | 117.46813 | 39049 ft | 506 kts | 96° |
| 2026-05-01 14:32 | 31.75708 | 117.55106 | 39046 ft | 505 kts | 96° |